createdAt,value
2019-05-09T00:00:53.231Z,0.00
2019-05-09T00:01:51.031Z,0.00
2019-05-09T00:02:51.039Z,0.00
2019-05-09T00:03:51.011Z,0.00
2019-05-09T00:04:53.162Z,0.00
2019-05-09T00:05:50.989Z,0.00
2019-05-09T00:06:50.979Z,0.00
2019-05-09T00:07:53.085Z,0.00
2019-05-09T00:08:52.763Z,0.00
2019-05-09T00:09:53.230Z,0.00
2019-05-09T00:10:53.297Z,0.00
2019-05-09T00:11:53.057Z,0.00
2019-05-09T00:12:50.975Z,0.00
2019-05-09T00:13:50.909Z,0.00
2019-05-09T00:14:50.913Z,0.00
2019-05-09T00:15:50.889Z,0.00
2019-05-09T00:16:53.013Z,0.00
2019-05-09T00:17:53.141Z,0.00
2019-05-09T00:18:50.873Z,0.00
2019-05-09T00:19:50.845Z,0.00
2019-05-09T00:20:50.825Z,0.00
2019-05-09T00:21:50.827Z,0.00
2019-05-09T00:22:50.813Z,0.00
2019-05-09T00:23:50.819Z,0.00
2019-05-09T00:24:50.774Z,0.00
2019-05-09T00:25:50.773Z,0.00
2019-05-09T00:26:50.769Z,0.00
2019-05-09T00:27:50.805Z,0.00
2019-05-09T00:28:50.741Z,0.00
2019-05-09T00:29:52.999Z,0.00
2019-05-09T00:30:50.747Z,0.00
2019-05-09T00:31:50.704Z,0.00
2019-05-09T00:32:50.722Z,0.00
2019-05-09T00:33:50.689Z,0.00
2019-05-09T00:34:50.684Z,0.00
2019-05-09T00:35:53.314Z,0.00
2019-05-09T00:36:50.687Z,0.00
2019-05-09T00:37:50.641Z,0.00
2019-05-09T00:38:50.641Z,0.00
2019-05-09T00:39:50.634Z,0.00
2019-05-09T00:40:57.881Z,0.00
2019-05-09T00:41:53.775Z,0.00
2019-05-09T00:42:50.588Z,0.00
2019-05-09T00:43:50.568Z,0.00
2019-05-09T00:44:50.565Z,0.00
2019-05-09T00:45:50.557Z,0.00
2019-05-09T00:46:50.566Z,0.00
2019-05-09T00:47:50.534Z,0.00
2019-05-09T00:48:50.527Z,0.00
2019-05-09T00:49:50.515Z,0.00
2019-05-09T00:50:50.540Z,0.00
2019-05-09T00:51:50.531Z,0.00
2019-05-09T00:52:50.483Z,0.00
2019-05-09T00:53:50.476Z,0.00
2019-05-09T00:54:50.466Z,0.00
2019-05-09T00:55:50.443Z,0.00
2019-05-09T00:56:50.436Z,0.00
2019-05-09T00:57:50.473Z,0.00
2019-05-09T00:58:50.413Z,0.00
2019-05-09T00:59:50.430Z,0.00
2019-05-09T01:00:50.393Z,0.00
2019-05-09T01:01:50.384Z,0.00
2019-05-09T01:02:50.462Z,0.00
2019-05-09T01:03:50.362Z,0.00
2019-05-09T01:04:50.352Z,0.00
2019-05-09T01:05:50.342Z,0.00
2019-05-09T01:06:50.332Z,0.00
2019-05-09T01:07:50.324Z,0.00
2019-05-09T01:08:50.348Z,0.00
2019-05-09T01:09:50.309Z,0.00
2019-05-09T01:10:50.290Z,0.00
2019-05-09T01:11:50.285Z,0.00
2019-05-09T01:12:50.286Z,0.00
2019-05-09T01:13:50.272Z,0.00
2019-05-09T01:14:50.298Z,0.00
2019-05-09T01:15:50.249Z,0.00
2019-05-09T01:16:50.219Z,0.00
2019-05-09T01:17:50.217Z,0.00
2019-05-09T01:18:50.232Z,0.00
2019-05-09T01:19:50.196Z,0.00
2019-05-09T01:20:50.206Z,0.00
2019-05-09T01:21:50.171Z,0.00
2019-05-09T01:22:50.168Z,0.00
2019-05-09T01:23:50.158Z,0.00
2019-05-09T01:24:50.138Z,0.00
2019-05-09T01:25:50.156Z,0.00
2019-05-09T01:26:50.114Z,0.00
2019-05-09T01:27:50.118Z,0.00
2019-05-09T01:28:50.086Z,0.00
2019-05-09T01:29:50.086Z,0.00
2019-05-09T01:30:50.084Z,0.00
2019-05-09T01:31:50.074Z,0.00
2019-05-09T01:32:50.047Z,0.00
2019-05-09T01:33:50.024Z,0.00
2019-05-09T01:34:50.049Z,0.00
2019-05-09T01:35:50.034Z,0.00
2019-05-09T01:36:50.021Z,0.00
2019-05-09T01:37:49.994Z,0.00
2019-05-09T01:38:49.980Z,0.00
2019-05-09T01:39:49.971Z,0.00
2019-05-09T01:40:49.973Z,0.00
2019-05-09T01:41:49.990Z,0.00
2019-05-09T01:42:49.956Z,0.00
2019-05-09T01:43:49.935Z,0.00
2019-05-09T01:44:49.969Z,0.00
2019-05-09T01:45:49.968Z,0.00
2019-05-09T01:46:49.958Z,0.00
2019-05-09T01:47:49.910Z,0.00
2019-05-09T01:48:49.900Z,0.00
2019-05-09T01:49:49.866Z,0.00
2019-05-09T01:50:49.857Z,0.00
2019-05-09T01:51:49.876Z,0.00
2019-05-09T01:52:49.870Z,0.00
2019-05-09T01:53:49.836Z,0.00
2019-05-09T01:54:49.807Z,0.00
2019-05-09T01:55:49.816Z,0.00
2019-05-09T01:56:49.794Z,0.00
2019-05-09T01:57:49.822Z,0.00
2019-05-09T01:58:49.796Z,0.00
2019-05-09T01:59:49.802Z,0.00
2019-05-09T02:00:49.755Z,0.00
2019-05-09T02:01:49.746Z,0.00
2019-05-09T02:02:49.734Z,0.00
2019-05-09T02:03:49.745Z,0.00
2019-05-09T02:04:49.713Z,0.00
2019-05-09T02:05:49.703Z,0.00
2019-05-09T02:06:49.694Z,0.00
2019-05-09T02:07:49.663Z,0.00
2019-05-09T02:08:49.674Z,0.00
2019-05-09T02:09:49.692Z,0.00
2019-05-09T02:10:49.673Z,0.00
2019-05-09T02:11:49.643Z,0.00
2019-05-09T02:12:49.622Z,0.00
2019-05-09T02:13:49.630Z,0.00
2019-05-09T02:14:49.600Z,0.00
2019-05-09T02:15:49.616Z,0.00
2019-05-09T02:16:49.587Z,0.00
2019-05-09T02:18:00.006Z,0.00
2019-05-09T02:18:50.553Z,0.00
2019-05-09T02:19:49.549Z,0.00
2019-05-09T02:20:49.529Z,0.00
2019-05-09T02:21:49.560Z,0.00
2019-05-09T02:22:49.525Z,0.00
2019-05-09T02:23:49.510Z,0.00
2019-05-09T02:24:49.500Z,0.00
2019-05-09T02:25:49.475Z,0.00
2019-05-09T02:26:49.470Z,0.00
2019-05-09T02:27:49.482Z,0.00
2019-05-09T02:28:49.450Z,0.00
2019-05-09T02:29:49.466Z,0.00
2019-05-09T02:30:49.448Z,0.00
2019-05-09T02:31:49.426Z,0.00
2019-05-09T02:32:49.445Z,0.00
2019-05-09T02:33:49.406Z,0.00
2019-05-09T02:34:49.388Z,0.00
2019-05-09T02:35:56.523Z,0.00
2019-05-09T02:36:50.377Z,0.00
2019-05-09T02:37:49.945Z,0.00
2019-05-09T02:38:49.353Z,0.00
2019-05-09T02:39:49.335Z,0.00
2019-05-09T02:40:49.322Z,0.00
2019-05-09T02:42:03.550Z,0.00
2019-05-09T02:42:50.293Z,0.00
2019-05-09T02:43:49.879Z,0.00
2019-05-09T02:44:49.491Z,0.00
2019-05-09T02:45:52.618Z,0.00
2019-05-09T02:46:49.357Z,0.00
2019-05-09T02:47:49.276Z,0.00
2019-05-09T02:48:49.748Z,0.00
2019-05-09T02:49:49.219Z,0.00
2019-05-09T02:50:49.232Z,0.00
2019-05-09T02:51:49.209Z,0.00
2019-05-09T02:52:49.212Z,0.00
2019-05-09T02:53:49.232Z,0.00
2019-05-09T02:54:50.236Z,0.00
2019-05-09T02:55:49.669Z,0.00
2019-05-09T02:56:49.538Z,0.00
2019-05-09T02:57:49.166Z,0.00
2019-05-09T02:58:49.126Z,0.00
2019-05-09T02:59:49.423Z,0.00
2019-05-09T03:00:49.110Z,0.00
2019-05-09T03:01:49.566Z,0.00
2019-05-09T03:02:49.117Z,4.00
2019-05-09T03:03:49.088Z,4.00
2019-05-09T03:04:49.164Z,4.00
2019-05-09T03:05:49.086Z,4.00
2019-05-09T03:06:49.469Z,4.00
2019-05-09T03:07:49.075Z,4.00
2019-05-09T03:08:49.353Z,4.00
2019-05-09T03:09:49.045Z,8.00
2019-05-09T03:10:49.395Z,4.00
2019-05-09T03:11:48.996Z,8.00
2019-05-09T03:12:50.238Z,12.00
2019-05-09T03:13:49.738Z,8.00
2019-05-09T03:14:48.968Z,12.00
2019-05-09T03:15:49.524Z,12.00
2019-05-09T03:16:49.359Z,12.00
2019-05-09T03:17:49.722Z,16.00
2019-05-09T03:18:49.570Z,16.00
2019-05-09T03:19:48.956Z,20.00
2019-05-09T03:20:49.408Z,24.00
2019-05-09T03:21:49.389Z,28.00
2019-05-09T03:22:48.879Z,28.00
2019-05-09T03:23:49.075Z,32.00
2019-05-09T03:24:48.871Z,40.00
2019-05-09T03:25:48.857Z,44.00
2019-05-09T03:26:49.469Z,52.00
2019-05-09T03:27:48.821Z,56.00
2019-05-09T03:28:49.375Z,64.00
2019-05-09T03:29:49.167Z,68.00
2019-05-09T03:30:50.205Z,72.00
2019-05-09T03:31:50.025Z,76.00
2019-05-09T03:32:49.184Z,84.00
2019-05-09T03:33:50.169Z,88.00
2019-05-09T03:34:48.745Z,96.00
2019-05-09T03:35:48.757Z,100.00
2019-05-09T03:36:48.750Z,104.00
2019-05-09T03:37:48.709Z,108.00
2019-05-09T03:38:48.710Z,108.00
2019-05-09T03:39:48.717Z,108.00
2019-05-09T03:40:48.689Z,108.00
2019-05-09T03:41:48.920Z,112.00
2019-05-09T03:42:48.715Z,116.00
2019-05-09T03:43:48.643Z,124.00
2019-05-09T03:44:48.637Z,132.00
2019-05-09T03:45:48.628Z,136.00
2019-05-09T03:46:48.622Z,144.00
2019-05-09T03:47:48.630Z,148.00
2019-05-09T03:48:48.608Z,156.00
2019-05-09T03:49:48.583Z,164.00
2019-05-09T03:50:48.740Z,180.00
2019-05-09T03:51:48.570Z,200.00
2019-05-09T03:52:48.573Z,224.00
2019-05-09T03:53:48.574Z,252.00
2019-05-09T03:54:48.522Z,276.00
2019-05-09T03:55:48.532Z,300.00
2019-05-09T03:56:48.510Z,324.00
2019-05-09T03:57:58.185Z,348.00
2019-05-09T03:58:48.470Z,372.00
2019-05-09T03:59:48.451Z,400.00
2019-05-09T04:00:48.464Z,428.00
2019-05-09T04:01:50.336Z,448.00
2019-05-09T04:02:48.453Z,464.00
2019-05-09T04:03:48.430Z,472.00
2019-05-09T04:04:48.410Z,476.00
2019-05-09T04:05:58.412Z,472.00
2019-05-09T04:06:49.393Z,468.00
2019-05-09T04:07:48.391Z,476.00
2019-05-09T04:08:48.386Z,492.00
2019-05-09T04:09:48.361Z,512.00
2019-05-09T04:10:50.160Z,532.00
2019-05-09T04:11:48.643Z,548.00
2019-05-09T04:12:55.699Z,564.00
2019-05-09T04:13:49.336Z,564.00
2019-05-09T04:14:48.298Z,568.00
2019-05-09T04:15:48.299Z,572.00
2019-05-09T04:16:48.345Z,580.00
2019-05-09T04:17:48.278Z,600.00
2019-05-09T04:18:48.306Z,640.00
2019-05-09T04:19:48.256Z,704.00
2019-05-09T04:20:48.391Z,792.00
2019-05-09T04:21:48.508Z,872.00
2019-05-09T04:22:49.062Z,948.00
2019-05-09T04:23:48.232Z,1016.00
2019-05-09T04:24:48.207Z,1088.00
2019-05-09T04:25:48.200Z,1156.00
2019-05-09T04:26:48.447Z,1204.00
2019-05-09T04:27:48.166Z,1244.00
2019-05-09T04:28:48.182Z,1260.00
2019-05-09T04:29:48.490Z,1256.00
2019-05-09T04:30:48.132Z,1216.00
2019-05-09T04:31:48.427Z,1168.00
2019-05-09T04:32:48.298Z,1124.00
2019-05-09T04:33:48.134Z,1088.00
2019-05-09T04:34:48.104Z,1088.00
2019-05-09T04:35:48.082Z,1120.00
2019-05-09T04:36:48.456Z,1152.00
2019-05-09T04:37:48.415Z,1196.00
2019-05-09T04:38:48.072Z,1232.00
2019-05-09T04:39:48.094Z,1256.00
2019-05-09T04:40:48.839Z,1264.00
2019-05-09T04:41:48.647Z,1256.00
2019-05-09T04:42:47.998Z,1244.00
2019-05-09T04:43:48.693Z,1232.00
2019-05-09T04:44:49.609Z,1232.00
2019-05-09T04:45:48.977Z,1284.00
2019-05-09T04:46:48.128Z,1392.00
2019-05-09T04:47:47.947Z,1524.00
2019-05-09T04:48:47.951Z,1648.00
2019-05-09T04:49:48.132Z,1744.00
2019-05-09T04:50:47.923Z,1700.00
2019-05-09T04:51:48.108Z,1636.00
2019-05-09T04:52:47.897Z,1556.00
2019-05-09T04:53:48.119Z,1528.00
2019-05-09T04:54:48.602Z,1568.00
2019-05-09T04:55:47.999Z,1692.00
2019-05-09T04:56:47.862Z,1860.00
2019-05-09T04:57:48.611Z,2036.00
2019-05-09T04:58:48.300Z,2188.00
2019-05-09T04:59:47.861Z,2304.00
2019-05-09T05:00:48.057Z,2448.00
2019-05-09T05:01:47.870Z,2584.00
2019-05-09T05:02:48.487Z,2748.00
2019-05-09T05:03:48.045Z,2928.00
2019-05-09T05:04:48.054Z,3072.00
2019-05-09T05:05:48.172Z,3192.00
2019-05-09T05:06:47.875Z,3308.00
2019-05-09T05:07:48.145Z,3420.00
2019-05-09T05:08:47.947Z,3488.00
2019-05-09T05:09:48.348Z,3560.00
2019-05-09T05:10:47.828Z,3728.00
2019-05-09T05:11:49.069Z,3780.00
2019-05-09T05:12:48.499Z,3856.00
2019-05-09T05:13:48.237Z,3908.00
2019-05-09T05:14:47.778Z,4040.00
2019-05-09T05:15:47.665Z,4188.00
2019-05-09T05:16:53.044Z,4332.00
2019-05-09T05:17:48.647Z,4328.00
2019-05-09T05:18:47.858Z,4260.00
2019-05-09T05:19:47.836Z,4220.00
2019-05-09T05:20:48.177Z,4284.00
2019-05-09T05:21:48.095Z,4428.00
2019-05-09T05:22:47.845Z,4692.00
2019-05-09T05:23:47.565Z,5072.00
2019-05-09T05:24:48.742Z,5388.00
2019-05-09T05:25:47.674Z,5680.00
2019-05-09T05:26:48.456Z,5944.00
2019-05-09T05:27:47.647Z,6240.00
2019-05-09T05:28:47.567Z,6804.00
2019-05-09T05:29:47.664Z,7396.00
2019-05-09T05:30:47.766Z,7828.00
2019-05-09T05:31:47.815Z,8104.00
2019-05-09T05:32:48.806Z,8308.00
2019-05-09T05:33:51.143Z,8448.00
2019-05-09T05:34:48.440Z,8464.00
2019-05-09T05:35:48.008Z,8344.00
2019-05-09T05:36:47.716Z,8180.00
2019-05-09T05:37:47.811Z,8080.00
2019-05-09T05:38:48.035Z,8024.00
2019-05-09T05:39:47.810Z,8056.00
2019-05-09T05:40:49.712Z,8176.00
2019-05-09T05:41:48.417Z,8316.00
2019-05-09T05:42:47.853Z,8544.00
2019-05-09T05:43:48.018Z,8860.00
2019-05-09T05:44:47.650Z,9296.00
2019-05-09T05:45:47.953Z,9800.00
2019-05-09T05:46:50.504Z,10196.00
2019-05-09T05:47:48.512Z,10576.00
2019-05-09T05:48:48.650Z,10856.00
2019-05-09T05:49:48.816Z,11076.00
2019-05-09T05:50:48.734Z,11092.00
2019-05-09T05:51:48.131Z,11056.00
2019-05-09T05:52:47.583Z,11044.00
2019-05-09T05:53:48.086Z,10928.00
2019-05-09T05:54:47.761Z,10864.00
2019-05-09T05:55:49.407Z,10836.00
2019-05-09T05:56:48.245Z,10984.00
2019-05-09T05:57:47.827Z,11124.00
2019-05-09T05:58:48.953Z,11412.00
2019-05-09T05:59:48.260Z,11904.00
2019-05-09T06:00:48.082Z,12696.00
2019-05-09T06:01:47.896Z,13544.00
2019-05-09T06:02:47.875Z,14604.00
2019-05-09T06:03:48.100Z,15476.00
2019-05-09T06:04:48.605Z,16320.00
2019-05-09T06:05:51.475Z,16992.00
2019-05-09T06:06:47.988Z,17376.00
2019-05-09T06:07:48.324Z,17600.00
2019-05-09T06:08:48.527Z,18272.00
2019-05-09T06:09:48.161Z,19616.00
2019-05-09T06:10:48.326Z,22176.00
2019-05-09T06:11:48.446Z,22400.00
2019-05-09T06:12:48.215Z,23264.00
2019-05-09T06:13:56.459Z,28256.00
2019-05-09T06:14:48.175Z,33888.00
2019-05-09T06:15:48.165Z,34112.00
2019-05-09T06:16:48.666Z,34752.00
2019-05-09T06:17:48.452Z,34976.00
2019-05-09T06:18:47.567Z,34560.00
2019-05-09T06:19:48.226Z,40512.00
2019-05-09T06:20:48.697Z,46496.00
2019-05-09T06:21:48.475Z,24832.00
2019-05-09T06:22:47.667Z,17120.00
2019-05-09T06:23:48.210Z,15108.00
2019-05-09T06:24:47.806Z,14784.00
2019-05-09T06:25:48.474Z,13580.00
2019-05-09T06:26:47.905Z,13384.00
2019-05-09T06:27:48.258Z,14188.00
2019-05-09T06:28:48.154Z,15784.00
2019-05-09T06:29:47.684Z,17472.00
2019-05-09T06:30:47.667Z,19328.00
2019-05-09T06:31:48.450Z,20576.00
2019-05-09T06:32:47.707Z,23104.00
2019-05-09T06:33:52.587Z,19808.00
2019-05-09T06:34:47.897Z,20544.00
2019-05-09T06:35:48.148Z,25312.00
2019-05-09T06:36:48.928Z,22688.00
2019-05-09T06:37:47.819Z,20864.00
2019-05-09T06:38:48.759Z,23936.00
2019-05-09T06:39:48.642Z,24704.00
2019-05-09T06:40:47.609Z,24960.00
2019-05-09T06:41:48.346Z,24672.00
2019-05-09T06:42:48.849Z,24000.00
2019-05-09T06:43:49.500Z,21504.00
2019-05-09T06:44:47.940Z,25952.00
2019-05-09T06:45:48.643Z,26464.00
2019-05-09T06:46:48.239Z,27968.00
2019-05-09T06:47:48.657Z,23456.00
2019-05-09T06:48:47.951Z,33472.00
2019-05-09T06:49:48.210Z,52448.00
2019-05-09T06:50:48.387Z,58080.00
2019-05-09T06:51:47.608Z,46240.00
2019-05-09T06:52:47.940Z,55232.00
2019-05-09T06:53:48.705Z,58336.00
2019-05-09T06:54:48.639Z,60320.00
2019-05-09T06:55:47.615Z,61632.00
2019-05-09T06:56:47.546Z,61312.00
2019-05-09T06:57:48.677Z,60736.00
2019-05-09T06:58:48.145Z,63328.00
2019-05-09T06:59:48.643Z,62272.00
2019-05-09T07:00:48.809Z,36832.00
2019-05-09T07:01:48.140Z,27456.00
2019-05-09T07:02:47.899Z,32544.00
2019-05-09T07:03:48.083Z,23776.00
2019-05-09T07:04:47.575Z,16956.00
2019-05-09T07:05:48.102Z,16628.00
2019-05-09T07:06:48.306Z,18432.00
2019-05-09T07:07:48.177Z,16600.00
2019-05-09T07:08:47.685Z,18144.00
2019-05-09T07:09:47.935Z,16932.00
2019-05-09T07:10:48.322Z,21152.00
2019-05-09T07:11:48.675Z,31616.00
2019-05-09T07:12:48.567Z,22912.00
2019-05-09T07:13:47.266Z,34208.00
2019-05-09T07:14:48.563Z,23136.00
2019-05-09T07:15:48.175Z,30816.00
2019-05-09T07:16:47.873Z,28928.00
2019-05-09T07:17:48.189Z,46688.00
2019-05-09T07:18:48.301Z,59616.00
2019-05-09T07:19:48.581Z,40064.00
2019-05-09T07:20:48.309Z,26400.00
2019-05-09T07:21:48.380Z,58240.00
2019-05-09T07:22:48.080Z,58944.00
2019-05-09T07:23:47.974Z,59840.00
2019-05-09T07:24:48.076Z,58176.00
2019-05-09T07:25:47.844Z,56992.00
2019-05-09T07:26:47.852Z,58656.00
2019-05-09T07:27:48.263Z,59520.00
2019-05-09T07:28:48.394Z,58880.00
2019-05-09T07:29:48.129Z,57728.00
2019-05-09T07:30:48.121Z,57920.00
2019-05-09T07:31:48.014Z,57184.00
2019-05-09T07:32:48.513Z,58528.00
2019-05-09T07:33:47.779Z,60576.00
2019-05-09T07:34:47.476Z,61056.00
2019-05-09T07:35:47.571Z,60864.00
2019-05-09T07:36:47.592Z,62816.00
2019-05-09T07:37:48.579Z,62912.00
2019-05-09T07:38:47.751Z,62304.00
2019-05-09T07:39:48.308Z,62432.00
2019-05-09T07:40:47.738Z,64416.00
2019-05-09T07:41:47.836Z,64128.00
2019-05-09T07:42:47.956Z,65536.00
2019-05-09T07:43:47.828Z,68896.00
2019-05-09T07:44:49.634Z,63616.00
2019-05-09T07:45:47.415Z,70880.00
2019-05-09T07:46:47.476Z,33760.00
2019-05-09T07:47:47.846Z,36416.00
2019-05-09T07:48:48.253Z,70688.00
2019-05-09T07:49:48.166Z,49184.00
2019-05-09T07:50:47.987Z,30688.00
2019-05-09T07:51:47.786Z,47680.00
2019-05-09T07:52:47.647Z,41312.00
2019-05-09T07:53:48.040Z,27488.00
2019-05-09T07:54:48.196Z,18112.00
2019-05-09T07:55:47.361Z,19040.00
2019-05-09T07:56:48.475Z,21728.00
2019-05-09T07:57:54.329Z,23264.00
2019-05-09T07:58:47.739Z,16584.00
2019-05-09T07:59:47.870Z,17088.00
2019-05-09T08:00:48.192Z,14404.00
2019-05-09T08:01:45.908Z,12860.00
2019-05-09T08:02:47.706Z,13712.00
2019-05-09T08:03:45.870Z,16400.00
2019-05-09T08:04:45.848Z,18048.00
2019-05-09T08:05:47.666Z,21440.00
2019-05-09T08:06:48.456Z,84128.00
2019-05-09T08:07:48.438Z,50816.00
2019-05-09T08:08:47.680Z,29792.00
2019-05-09T08:09:47.624Z,50016.00
2019-05-09T08:10:47.761Z,28384.00
2019-05-09T08:11:48.153Z,35296.00
2019-05-09T08:12:47.957Z,46400.00
2019-05-09T08:13:48.404Z,58976.00
2019-05-09T08:15:02.912Z,56096.00
2019-05-09T08:15:47.740Z,51488.00
2019-05-09T08:16:47.534Z,86752.00
2019-05-09T08:17:45.689Z,45632.00
2019-05-09T08:18:48.149Z,84832.00
2019-05-09T08:19:48.431Z,79744.00
2019-05-09T08:20:47.504Z,23936.00
2019-05-09T08:21:47.833Z,73856.00
2019-05-09T08:22:52.258Z,75456.00
2019-05-09T08:23:48.572Z,76832.00
2019-05-09T08:24:45.592Z,79104.00
2019-05-09T08:25:45.588Z,79232.00
2019-05-09T08:26:47.656Z,27584.00
2019-05-09T08:27:48.105Z,83520.00
2019-05-09T08:28:47.937Z,80128.00
2019-05-09T08:29:47.698Z,78496.00
2019-05-09T08:30:48.245Z,80416.00
2019-05-09T08:31:47.951Z,80704.00
2019-05-09T08:32:48.008Z,78464.00
2019-05-09T08:33:45.507Z,76896.00
2019-05-09T08:34:45.505Z,40032.00
2019-05-09T08:35:49.908Z,22464.00
2019-05-09T08:36:47.760Z,49856.00
2019-05-09T08:37:47.591Z,26880.00
2019-05-09T08:38:47.586Z,77920.00
2019-05-09T08:39:45.519Z,78016.00
2019-05-09T08:40:45.429Z,81088.00
2019-05-09T08:41:47.779Z,82336.00
2019-05-09T08:42:45.417Z,19648.00
2019-05-09T08:43:45.395Z,16744.00
2019-05-09T08:44:45.503Z,17568.00
2019-05-09T08:45:45.386Z,75808.00
2019-05-09T08:46:45.388Z,49824.00
2019-05-09T08:47:45.397Z,19680.00
2019-05-09T08:48:45.323Z,87232.00
2019-05-09T08:49:47.369Z,88960.00
2019-05-09T08:50:47.912Z,60544.00
2019-05-09T08:51:55.774Z,47392.00
2019-05-09T08:52:48.174Z,37728.00
2019-05-09T08:53:48.004Z,89632.00
2019-05-09T08:54:45.266Z,92416.00
2019-05-09T08:55:47.347Z,26944.00
2019-05-09T08:56:47.519Z,90848.00
2019-05-09T08:57:45.246Z,87968.00
2019-05-09T08:58:45.223Z,85696.00
2019-05-09T08:59:49.755Z,87008.00
2019-05-09T09:00:48.391Z,89184.00
2019-05-09T09:02:08.403Z,91008.00
2019-05-09T09:02:48.176Z,93088.00
2019-05-09T09:03:45.165Z,96448.00
2019-05-09T09:04:45.202Z,97152.00
2019-05-09T09:05:45.267Z,95808.00
2019-05-09T09:06:45.169Z,93728.00
2019-05-09T09:07:45.140Z,92896.00
2019-05-09T09:08:45.113Z,91488.00
2019-05-09T09:09:45.104Z,88544.00
2019-05-09T09:10:45.095Z,89376.00
2019-05-09T09:11:47.702Z,87776.00
2019-05-09T09:12:47.515Z,85600.00
2019-05-09T09:13:45.077Z,85248.00
2019-05-09T09:14:45.079Z,82720.00
2019-05-09T09:16:04.697Z,82208.00
2019-05-09T09:16:47.585Z,82144.00
2019-05-09T09:17:48.835Z,81152.00
2019-05-09T09:18:45.011Z,83744.00
2019-05-09T09:19:45.017Z,87680.00
2019-05-09T09:20:45.020Z,93120.00
2019-05-09T09:21:46.894Z,17072.00
2019-05-09T09:22:45.004Z,14672.00
2019-05-09T09:23:49.706Z,14820.00
2019-05-09T09:24:47.966Z,16180.00
2019-05-09T09:25:44.954Z,21280.00
2019-05-09T09:26:44.960Z,98048.00
2019-05-09T09:27:50.168Z,33120.00
2019-05-09T09:28:48.272Z,20640.00
2019-05-09T09:29:44.905Z,47392.00
2019-05-09T09:30:44.888Z,24320.00
2019-05-09T09:31:44.869Z,22848.00
2019-05-09T09:32:44.885Z,26112.00
2019-05-09T09:33:44.857Z,98528.00
2019-05-09T09:34:44.931Z,97984.00
2019-05-09T09:35:44.820Z,98944.00
2019-05-09T09:36:44.834Z,98304.00
2019-05-09T09:37:48.860Z,98784.00
2019-05-09T09:38:47.954Z,99776.00
2019-05-09T09:39:45.048Z,96288.00
2019-05-09T09:40:44.766Z,51680.00
2019-05-09T09:41:44.766Z,31552.00
2019-05-09T09:42:44.804Z,26016.00
2019-05-09T09:43:44.764Z,24608.00
2019-05-09T09:44:44.743Z,26400.00
2019-05-09T09:45:44.736Z,27264.00
2019-05-09T09:46:44.772Z,25280.00
2019-05-09T09:47:44.686Z,104000.00
2019-05-09T09:48:44.716Z,100704.00
2019-05-09T09:49:44.686Z,29824.00
2019-05-09T09:50:44.658Z,97536.00
2019-05-09T09:51:44.665Z,95584.00
2019-05-09T09:52:44.639Z,94528.00
2019-05-09T09:53:44.682Z,92000.00
2019-05-09T09:54:44.613Z,93568.00
2019-05-09T09:55:44.761Z,73664.00
2019-05-09T09:56:44.627Z,16812.00
2019-05-09T09:57:44.587Z,79616.00
2019-05-09T09:58:44.614Z,22016.00
2019-05-09T09:59:44.674Z,15556.00
2019-05-09T10:00:44.553Z,90112.00
2019-05-09T10:01:44.555Z,88608.00
2019-05-09T10:02:44.528Z,88288.00
2019-05-09T10:03:44.546Z,87264.00
2019-05-09T10:04:44.525Z,93600.00
2019-05-09T10:05:44.506Z,54816.00
2019-05-09T10:06:44.487Z,93696.00
2019-05-09T10:07:44.469Z,94464.00
2019-05-09T10:08:44.495Z,94880.00
2019-05-09T10:09:44.473Z,94208.00
2019-05-09T10:10:44.433Z,94240.00
2019-05-09T10:11:44.447Z,96128.00
2019-05-09T10:12:44.714Z,96960.00
2019-05-09T10:13:44.407Z,97984.00
2019-05-09T10:14:44.421Z,97984.00
2019-05-09T10:15:44.405Z,100736.00
2019-05-09T10:16:44.383Z,19552.00
2019-05-09T10:17:44.377Z,104832.00
2019-05-09T10:18:44.365Z,103424.00
2019-05-09T10:19:44.401Z,104704.00
2019-05-09T10:20:44.374Z,27328.00
2019-05-09T10:21:44.336Z,22912.00
2019-05-09T10:22:47.405Z,21632.00
2019-05-09T10:23:45.307Z,21408.00
2019-05-09T10:24:44.325Z,21216.00
2019-05-09T10:25:44.277Z,20000.00
2019-05-09T10:26:44.279Z,19456.00
2019-05-09T10:27:44.263Z,21216.00
2019-05-09T10:28:45.533Z,31776.00
2019-05-09T10:29:44.253Z,84416.00
2019-05-09T10:30:44.340Z,32480.00
2019-05-09T10:31:44.213Z,33760.00
2019-05-09T10:32:44.205Z,28832.00
2019-05-09T10:33:44.211Z,70848.00
2019-05-09T10:34:44.224Z,97056.00
2019-05-09T10:35:44.227Z,96192.00
2019-05-09T10:36:44.163Z,95040.00
2019-05-09T10:37:44.157Z,73824.00
2019-05-09T10:38:44.151Z,22272.00
2019-05-09T10:39:44.274Z,15336.00
2019-05-09T10:40:44.162Z,13212.00
2019-05-09T10:41:44.147Z,11696.00
2019-05-09T10:42:44.108Z,11596.00
2019-05-09T10:43:44.194Z,11588.00
2019-05-09T10:44:44.103Z,11480.00
2019-05-09T10:45:44.105Z,12852.00
2019-05-09T10:46:52.830Z,15716.00
2019-05-09T10:47:45.070Z,18816.00
2019-05-09T10:48:44.043Z,21888.00
2019-05-09T10:49:44.029Z,23200.00
2019-05-09T10:50:45.919Z,23584.00
2019-05-09T10:51:45.034Z,23072.00
2019-05-09T10:52:44.001Z,22272.00
2019-05-09T10:53:43.993Z,21120.00
2019-05-09T10:54:43.975Z,19968.00
2019-05-09T10:55:43.962Z,20032.00
2019-05-09T10:56:43.959Z,21120.00
2019-05-09T10:57:43.974Z,23328.00
2019-05-09T10:58:43.947Z,26816.00
2019-05-09T10:59:43.947Z,85600.00
2019-05-09T11:00:43.891Z,120064.00
2019-05-09T11:01:43.930Z,115712.00
2019-05-09T11:02:43.905Z,108672.00
2019-05-09T11:03:43.863Z,107296.00
2019-05-09T11:04:46.311Z,103872.00
2019-05-09T11:05:44.903Z,103072.00
2019-05-09T11:06:43.862Z,101632.00
2019-05-09T11:07:43.849Z,100768.00
2019-05-09T11:08:43.833Z,18176.00
2019-05-09T11:09:43.818Z,88640.00
2019-05-09T11:10:43.803Z,102048.00
2019-05-09T11:11:43.875Z,39264.00
2019-05-09T11:12:43.783Z,18752.00
2019-05-09T11:13:43.769Z,24224.00
2019-05-09T11:14:43.809Z,21888.00
2019-05-09T11:15:43.772Z,17216.00
2019-05-09T11:16:49.144Z,15560.00
2019-05-09T11:17:44.748Z,15568.00
2019-05-09T11:18:43.711Z,17056.00
2019-05-09T11:19:43.707Z,21600.00
2019-05-09T11:20:43.742Z,24416.00
2019-05-09T11:21:43.688Z,23968.00
2019-05-09T11:22:43.676Z,23936.00
2019-05-09T11:23:43.675Z,25408.00
2019-05-09T11:24:49.782Z,62720.00
2019-05-09T11:25:44.634Z,33248.00
2019-05-09T11:26:43.647Z,33504.00
2019-05-09T11:27:43.597Z,34848.00
2019-05-09T11:28:43.613Z,47680.00
2019-05-09T11:29:46.330Z,31232.00
2019-05-09T11:30:44.581Z,25152.00
2019-05-09T11:31:43.564Z,24832.00
2019-05-09T11:32:43.550Z,27616.00
2019-05-09T11:33:43.599Z,36832.00
2019-05-09T11:34:43.562Z,120256.00
2019-05-09T11:35:43.534Z,116640.00
2019-05-09T11:36:43.519Z,88480.00
2019-05-09T11:37:43.499Z,38240.00
2019-05-09T11:38:44.214Z,31328.00
2019-05-09T11:39:43.500Z,35584.00
2019-05-09T11:40:43.512Z,32256.00
2019-05-09T11:41:43.474Z,33152.00
2019-05-09T11:42:43.443Z,103744.00
2019-05-09T11:43:43.447Z,38560.00
2019-05-09T11:44:43.448Z,50080.00
2019-05-09T11:45:43.419Z,20896.00
2019-05-09T11:46:43.414Z,18560.00
2019-05-09T11:47:46.412Z,17664.00
2019-05-09T11:48:43.389Z,18304.00
2019-05-09T11:49:43.396Z,19584.00
2019-05-09T11:50:43.378Z,19712.00
2019-05-09T11:51:43.355Z,19520.00
2019-05-09T11:52:43.347Z,19168.00
2019-05-09T11:53:43.352Z,18912.00
2019-05-09T11:54:43.382Z,18624.00
2019-05-09T11:55:43.588Z,19040.00
2019-05-09T11:56:43.302Z,22400.00
2019-05-09T11:57:43.276Z,27008.00
2019-05-09T11:58:43.285Z,31232.00
2019-05-09T11:59:43.282Z,31936.00
2019-05-09T12:00:43.246Z,35424.00
2019-05-09T12:01:43.266Z,42432.00
2019-05-09T12:02:43.246Z,38880.00
2019-05-09T12:03:43.232Z,38528.00
2019-05-09T12:04:43.205Z,36096.00
2019-05-09T12:05:43.233Z,33184.00
2019-05-09T12:06:43.198Z,31872.00
2019-05-09T12:07:43.197Z,34240.00
2019-05-09T12:08:43.167Z,61216.00
2019-05-09T12:09:43.191Z,94432.00
2019-05-09T12:10:43.158Z,88160.00
2019-05-09T12:11:44.654Z,92704.00
2019-05-09T12:12:43.121Z,97056.00
2019-05-09T12:13:43.128Z,35488.00